Time;durP1;ratioP1;P1;durP2;ratioP2;P2;SDS_P1;SDS_P2;PMS_P1;PMS_P2;Temp;Humidity;BMP_temperature;BMP_pressure;BME280_temperature;BME280_humidity;BME280_pressure;Samples;Min_cycle;Max_cycle;Signal;HPM_P1;HPM_P2
2022/08/12 00:42:52;;;;;;;4.70;3.20;;;;;;;20.15;56.96;101050.82;106238;1271;24218;-74
2022/08/12 00:45:19;;;;;;;5.90;3.10;;;;;;;20.14;56.83;101051.03;106263;1271;22597;-72
2022/08/12 00:47:49;;;;;;;7.70;3.50;;;;;;;20.13;56.78;101055.01;106396;1271;24375;-75
2022/08/12 00:50:18;;;;;;;5.70;3.60;;;;;;;20.13;56.81;101055.36;106518;1271;23048;-74
2022/08/12 00:52:48;;;;;;;5.50;3.00;;;;;;;20.11;56.80;101052.56;106287;1271;24326;-75
2022/08/12 00:55:17;;;;;;;7.40;3.20;;;;;;;20.12;56.65;101052.73;105059;1269;1599756;-74
2022/08/12 00:57:47;;;;;;;9.00;3.60;;;;;;;20.12;56.64;101049.52;106472;1271;23935;-73
2022/08/12 01:00:20;;;;;;;5.90;3.40;;;;;;;20.11;56.75;101050.25;106173;1271;24385;-74
2022/08/12 01:02:56;;;;;;;4.40;3.20;;;;;;;20.11;56.74;101049.73;106060;1271;24430;-74
2022/08/12 01:13:47;;;;;;;10.30;3.00;;;;;;;20.02;56.60;101044.67;106235;1271;24276;-72
2022/08/12 01:16:16;;;;;;;4.90;3.20;;;;;;;20.00;56.67;101041.52;106426;1271;25274;-74
2022/08/12 01:18:44;;;;;;;6.00;3.20;;;;;;;19.99;56.72;101039.77;106495;1271;22666;-73
2022/08/12 01:21:26;;;;;;;4.90;2.90;;;;;;;19.97;56.70;101038.05;106231;1271;24400;-73
2022/08/12 01:24:18;;;;;;;4.40;3.00;;;;;;;19.95;56.69;101045.13;106357;1271;22530;-73
2022/08/12 01:26:58;;;;;;;3.10;2.80;;;;;;;19.92;56.80;101048.97;106469;1271;22543;-73
2022/08/12 01:29:28;;;;;;;3.20;2.90;;;;;;;19.92;56.76;101045.03;106213;1271;23924;-72
2022/08/12 01:32:04;;;;;;;4.50;3.00;;;;;;;19.92;56.80;101046.98;106377;1271;25394;-84
2022/08/12 01:34:35;;;;;;;4.10;2.70;;;;;;;19.90;56.76;101047.77;107657;1271;22479;-70
2022/08/12 01:37:06;;;;;;;3.50;2.90;;;;;;;19.91;56.84;101047.77;109003;1271;22685;-71
2022/08/12 01:39:41;;;;;;;6.20;3.10;;;;;;;19.91;56.86;101048.46;107176;1270;22763;-73
2022/08/12 01:42:33;;;;;;;6.60;3.20;;;;;;;19.91;56.82;101045.05;108543;1271;22472;-70
2022/08/12 01:45:01;;;;;;;4.70;2.80;;;;;;;19.92;56.84;101041.27;108743;1270;25283;-74
2022/08/12 01:47:48;;;;;;;3.40;2.50;;;;;;;19.92;56.88;101038.94;106391;1271;22592;-71
2022/08/12 01:50:33;;;;;;;4.10;2.70;;;;;;;19.92;56.95;101041.28;106139;1271;25219;-76
2022/08/12 01:53:09;;;;;;;5.80;3.00;;;;;;;19.92;56.96;101043.07;106145;1271;22552;-71
2022/08/12 01:55:40;;;;;;;;;;;;;;;19.93;57.03;101040.00;106142;1271;25222;-70
2022/08/12 01:58:26;;;;;;;4.40;2.70;;;;;;;19.90;57.08;101034.73;106181;1271;22527;-73
2022/08/12 02:01:02;;;;;;;4.60;2.40;;;;;;;19.91;57.02;101021.64;106193;1271;25359;-73
2022/08/12 02:13:42;;;;;;;4.70;2.50;;;;;;;19.85;57.42;101022.23;106128;1271;24302;-74
2022/08/12 02:16:30;;;;;;;7.10;2.80;;;;;;;19.84;57.42;101012.45;106405;1271;22610;-73
2022/08/12 02:19:24;;;;;;;4.20;2.60;;;;;;;19.84;57.42;101014.60;106400;1271;25471;-72
2022/08/12 02:21:57;;;;;;;4.50;2.60;;;;;;;19.81;57.36;101014.89;106170;1271;24234;-72
2022/08/12 02:24:30;;;;;;;5.90;2.10;;;;;;;19.79;57.52;101013.54;106239;1271;22661;-73
2022/08/12 02:26:58;;;;;;;3.50;2.20;;;;;;;19.77;57.63;101021.27;106198;1271;22993;-74
2022/08/12 02:29:25;;;;;;;5.90;2.60;;;;;;;19.78;57.71;101019.11;106698;1271;22754;-73
2022/08/12 02:31:54;;;;;;;2.90;2.20;;;;;;;19.78;57.73;101013.39;106211;1271;25427;-75
2022/08/12 02:34:22;;;;;;;4.40;2.20;;;;;;;19.77;57.68;101000.73;106456;1270;23915;-73
2022/08/12 02:36:54;;;;;;;3.20;2.20;;;;;;;19.76;57.71;100991.46;106328;1271;24371;-74
2022/08/12 02:39:26;;;;;;;3.80;2.10;;;;;;;19.75;57.81;100982.61;106536;1271;22548;-73
2022/08/12 02:41:56;;;;;;;5.20;2.20;;;;;;;19.75;57.79;100986.70;106614;1271;24190;-74
2022/08/12 02:44:29;;;;;;;7.50;2.20;;;;;;;19.76;58.07;100995.97;106358;1271;22856;-73
2022/08/12 02:47:01;;;;;;;4.10;2.10;;;;;;;19.73;58.22;100998.93;106223;1271;23081;-74
2022/08/12 02:49:31;;;;;;;2.40;2.00;;;;;;;19.71;58.34;100996.34;106364;1271;25544;-70
2022/08/12 02:51:59;;;;;;;3.20;2.10;;;;;;;19.72;58.34;101005.05;106145;1271;22547;-72
2022/08/12 02:54:26;;;;;;;4.20;1.70;;;;;;;19.72;58.38;101009.85;106411;1271;22546;-72
2022/08/12 02:56:53;;;;;;;5.10;2.50;;;;;;;19.73;58.28;101014.11;106195;1271;24073;-73
2022/08/12 02:59:23;;;;;;;3.20;2.20;;;;;;;19.73;58.23;101018.39;106112;1269;22544;-73
2022/08/12 03:02:03;;;;;;;2.90;2.00;;;;;;;19.73;58.33;101016.98;106114;1271;22544;-72
2022/08/12 03:04:30;;;;;;;5.70;2.20;;;;;;;19.73;58.43;101017.52;106225;1271;22533;-76
2022/08/12 03:07:27;;;;;;;3.20;1.80;;;;;;;19.73;58.38;101006.27;106365;1271;23936;-71
2022/08/12 03:10:17;;;;;;;3.20;2.40;;;;;;;19.74;58.28;100997.10;106135;1271;24294;-73
2022/08/12 03:13:05;;;;;;;8.10;2.60;;;;;;;19.73;58.32;100994.64;106125;1271;22550;-70
2022/08/12 03:15:34;;;;;;;4.10;2.60;;;;;;;19.71;58.49;100998.27;106149;1271;24305;-69
2022/08/12 03:18:16;;;;;;;2.40;1.90;;;;;;;19.72;58.66;101002.55;106223;1271;22586;-68
2022/08/12 03:20:56;;;;;;;8.20;2.60;;;;;;;19.72;58.66;101012.36;106123;1271;24209;-70
2022/08/12 03:23:23;;;;;;;3.20;2.00;;;;;;;19.71;58.64;101011.14;106147;1271;25468;-69
2022/08/12 03:25:59;;;;;;;5.40;2.00;;;;;;;19.70;58.51;101022.83;106019;1271;22544;-70
2022/08/12 03:31:18;;;;;;;3.00;2.10;;;;;;;19.70;58.63;101007.08;106151;1271;22825;-69
2022/08/12 03:33:47;;;;;;;4.00;2.30;;;;;;;19.68;58.62;101006.61;106182;1271;25308;-69
2022/08/12 03:36:31;;;;;;;2.90;2.20;;;;;;;19.70;58.68;101021.55;105967;1271;25427;-68
2022/08/12 03:41:54;;;;;;;4.00;1.90;;;;;;;19.70;58.50;101018.52;105938;1271;22537;-68
2022/08/12 04:01:40;;;;;;;4.40;2.20;;;;;;;19.66;59.51;101046.73;106067;1271;23909;-71
2022/08/12 04:04:10;;;;;;;4.50;2.10;;;;;;;19.65;59.53;101053.00;105982;1271;22689;-70
2022/08/12 04:06:45;;;;;;;2.20;1.80;;;;;;;19.66;59.62;101054.76;106179;1271;24465;-70
2022/08/12 04:09:12;;;;;;;4.80;2.40;;;;;;;19.67;59.67;101058.84;106074;1271;22739;-72
2022/08/12 04:14:31;;;;;;;3.70;1.90;;;;;;;19.67;59.53;101054.73;106250;1271;25242;-70
2022/08/12 04:17:00;;;;;;;4.00;1.90;;;;;;;19.65;59.48;101053.02;106047;1271;25235;-71
2022/08/12 04:19:27;;;;;;;4.50;1.90;;;;;;;19.63;59.66;101052.34;106153;1271;26158;-72
2022/08/12 04:21:54;;;;;;;2.60;2.20;;;;;;;19.63;59.66;101053.78;106003;1271;24507;-76
2022/08/12 04:24:34;;;;;;;5.00;2.50;;;;;;;19.60;59.66;101053.50;106156;1271;22518;-74
2022/08/12 04:27:07;;;;;;;3.30;2.10;;;;;;;19.64;59.88;101057.16;106135;1271;25579;-71
2022/08/12 04:29:36;;;;;;;5.30;2.30;;;;;;;19.65;59.82;101052.48;106234;1271;22537;-71
2022/08/12 04:32:24;;;;;;;4.40;2.30;;;;;;;19.65;59.88;101054.80;106522;1271;22575;-76
2022/08/12 04:34:51;;;;;;;6.60;1.80;;;;;;;19.67;59.89;101054.02;106278;1271;22482;-72
2022/08/12 04:37:18;;;;;;;5.40;2.30;;;;;;;19.69;59.99;101054.65;106375;1271;24210;-72
2022/08/12 04:39:46;;;;;;;3.20;2.10;;;;;;;19.73;60.04;101056.30;106515;1271;25406;-72
2022/08/12 04:42:13;;;;;;;5.70;2.30;;;;;;;19.76;60.02;101053.13;106681;1270;24259;-78
2022/08/12 04:44:41;;;;;;;5.70;2.50;;;;;;;19.78;59.87;101057.52;107818;1271;26218;-71
2022/08/12 04:47:13;;;;;;;5.20;2.10;;;;;;;19.80;60.01;101058.52;107987;1271;22589;-72
2022/08/12 04:49:44;;;;;;;5.70;2.30;;;;;;;19.81;60.04;101063.48;107604;1274;22556;-70
2022/08/12 04:52:11;;;;;;;5.60;2.30;;;;;;;19.85;60.13;101060.14;108004;1274;22857;-70
2022/08/12 04:54:38;;;;;;;2.90;2.10;;;;;;;19.90;59.90;101055.14;108273;1274;22538;-70
2022/08/12 04:57:08;;;;;;;2.80;2.00;;;;;;;19.92;59.70;101050.77;106256;1274;24330;-70
2022/08/12 04:59:36;;;;;;;6.00;2.00;;;;;;;19.99;59.64;101050.86;105853;1274;22768;-73
2022/08/12 05:02:18;;;;;;;2.70;2.20;;;;;;;20.02;59.55;101045.76;105847;1274;22550;-70
2022/08/12 05:04:56;;;;;;;2.50;1.90;;;;;;;20.05;59.50;101043.52;105954;1274;22566;-69
2022/08/12 05:07:27;;;;;;;4.40;2.00;;;;;;;20.07;59.46;101048.27;105527;1271;22692;-70
2022/08/12 05:09:54;;;;;;;4.60;2.00;;;;;;;20.07;59.54;101046.83;105771;1276;22580;-70
2022/08/12 05:12:40;;;;;;;5.40;2.30;;;;;;;20.12;59.65;101051.99;105414;1276;22685;-70
2022/08/12 05:15:07;;;;;;;6.90;2.10;;;;;;;20.17;59.58;101053.06;105553;1277;25454;-71
2022/08/12 05:17:52;;;;;;;5.20;2.50;;;;;;;20.23;59.86;101055.14;105181;1282;23030;-70
2022/08/12 05:20:21;;;;;;;5.60;2.40;;;;;;;20.27;59.63;101051.58;105508;1282;22657;-68
2022/08/12 05:22:49;;;;;;;4.20;2.50;;;;;;;20.31;59.50;101054.67;104968;1283;24116;-68
2022/08/12 05:25:23;;;;;;;3.50;2.70;;;;;;;20.32;59.54;101047.84;105240;1282;24239;-71
2022/08/12 05:27:50;;;;;;;6.40;2.90;;;;;;;20.34;59.69;101054.04;105539;1276;24235;-73
2022/08/12 05:30:29;;;;;;;6.80;2.40;;;;;;;20.33;59.46;101053.52;106038;1277;22539;-69
2022/08/12 05:32:58;;;;;;;5.40;2.40;;;;;;;20.34;59.47;101053.65;106036;1277;22523;-70
2022/08/12 05:35:26;;;;;;;4.60;2.10;;;;;;;20.41;59.47;101059.83;106145;1271;22553;-71
2022/08/12 05:38:54;;;;;;;3.30;2.20;;;;;;;20.47;59.60;101056.72;106232;1269;22606;-72
2022/08/12 05:40:40;;;;;;;6.20;2.60;;;;;;;20.57;59.38;101048.46;106282;1271;22515;-72
2022/08/12 05:43:08;;;;;;;7.50;2.90;;;;;;;20.65;59.30;101051.34;106294;1271;22533;-72
2022/08/12 05:45:34;;;;;;;6.60;2.60;;;;;;;20.71;59.23;101053.10;106362;1271;24306;-71
2022/08/12 05:48:07;;;;;;;3.20;2.20;;;;;;;20.73;59.26;101050.16;106289;1271;25417;-70
2022/08/12 05:50:34;;;;;;;5.90;2.50;;;;;;;20.73;59.22;101052.83;106590;1269;22556;-72
2022/08/12 05:53:02;;;;;;;4.70;2.60;;;;;;;20.68;59.30;101055.87;106357;1271;25768;-72
2022/08/12 05:55:30;;;;;;;5.40;2.20;;;;;;;20.65;59.29;101059.20;106360;1271;22708;-71
2022/08/12 05:57:57;;;;;;;5.60;2.70;;;;;;;20.63;59.38;101056.45;106156;1271;22850;-71
2022/08/12 06:00:25;;;;;;;7.60;2.90;;;;;;;20.61;59.41;101057.60;106326;1271;24220;-71
2022/08/12 06:02:55;;;;;;;5.00;2.50;;;;;;;20.60;59.63;101054.95;106316;1271;22521;-70
2022/08/12 06:05:22;;;;;;;3.90;2.40;;;;;;;20.61;59.72;101056.16;106269;1271;24222;-70
2022/08/12 06:07:53;;;;;;;5.50;2.40;;;;;;;20.63;59.67;101053.91;106287;1271;24221;-68
2022/08/12 06:10:29;;;;;;;6.40;2.40;;;;;;;20.63;59.72;101048.93;106034;1271;22541;-73
2022/08/12 06:13:03;;;;;;;3.90;2.10;;;;;;;20.61;59.79;101043.64;106267;1271;22528;-70
2022/08/12 06:15:36;;;;;;;6.30;2.90;;;;;;;20.64;59.95;101038.33;105587;1276;24392;-72
2022/08/12 06:18:11;;;;;;;8.40;4.10;;;;;;;20.65;60.06;101038.44;105714;1279;25262;-70
2022/08/12 06:20:46;;;;;;;7.10;2.40;;;;;;;20.68;60.22;101036.02;105661;1276;25206;-68
2022/08/12 06:23:14;;;;;;;5.30;2.50;;;;;;;20.72;60.34;101036.91;105616;1279;25536;-71
2022/08/12 06:25:45;;;;;;;6.20;2.80;;;;;;;20.78;60.32;101041.13;105646;1276;25541;-72
2022/08/12 06:28:18;;;;;;;4.10;2.90;;;;;;;20.84;60.42;101042.33;105822;1279;22608;-73
2022/08/12 06:30:45;;;;;;;6.20;2.90;;;;;;;20.90;60.17;101044.59;105741;1277;23389;-71
2022/08/12 06:33:34;;;;;;;5.70;2.50;;;;;;;20.95;60.09;101045.69;105856;1271;24287;-70
2022/08/12 06:36:23;;;;;;;3.90;2.40;;;;;;;21.03;60.16;101047.50;106186;1271;24947;-70
2022/08/12 06:38:59;;;;;;;7.60;2.50;;;;;;;21.11;60.11;101050.19;106144;1271;22607;-68
2022/08/12 06:44:32;;;;;;;7.80;2.40;;;;;;;21.29;59.98;101048.37;105987;1271;22536;-70
2022/08/12 06:46:59;;;;;;;3.10;2.60;;;;;;;21.32;59.81;101048.77;106031;1271;24391;-70
2022/08/12 06:49:32;;;;;;;5.70;3.20;;;;;;;21.33;59.92;101046.73;106022;1271;24401;-69
2022/08/12 06:51:59;;;;;;;4.10;2.70;;;;;;;21.32;59.70;101046.79;106135;1271;22544;-70
2022/08/12 06:54:26;;;;;;;5.60;2.70;;;;;;;21.31;59.63;101052.20;106208;1271;24370;-69
2022/08/12 06:56:59;;;;;;;7.90;2.40;;;;;;;21.32;59.74;101048.42;106197;1271;22529;-71
2022/08/12 06:59:46;;;;;;;5.60;2.70;;;;;;;21.35;59.84;101050.63;106030;1271;22896;-70
2022/08/12 07:02:13;;;;;;;7.20;2.70;;;;;;;21.37;60.01;101052.67;106135;1271;24114;-68
2022/08/12 07:04:40;;;;;;;5.20;2.70;;;;;;;21.40;60.00;101053.61;106244;1271;22552;-71
2022/08/12 07:07:08;;;;;;;5.50;2.70;;;;;;;21.44;59.92;101053.27;106234;1271;22525;-68
2022/08/12 07:09:38;;;;;;;6.60;2.70;;;;;;;21.46;60.09;101057.61;106074;1271;24924;-73
2022/08/12 07:12:26;;;;;;;10.80;3.00;;;;;;;21.49;60.09;101045.67;106198;1271;22536;-87
2022/08/12 07:14:58;;;;;;;7.50;2.40;;;;;;;21.51;59.90;101042.54;106300;1271;22533;-71
2022/08/12 07:17:34;;;;;;;6.90;2.60;;;;;;;21.55;60.19;101044.90;106484;1271;25618;-70
2022/08/12 07:20:11;;;;;;;10.40;3.00;;;;;;;21.59;60.26;101045.42;106160;1271;22767;-72
2022/08/12 07:23:00;;;;;;;4.20;2.60;;;;;;;21.66;60.23;101049.92;106212;1271;25524;-69
2022/08/12 07:25:30;;;;;;;5.40;2.50;;;;;;;21.71;59.96;101048.11;106304;1271;25349;-72
2022/08/12 07:28:16;;;;;;;4.10;2.80;;;;;;;21.77;59.93;101046.62;106198;1271;26488;-69
2022/08/12 07:30:47;;;;;;;4.20;2.50;;;;;;;21.79;60.08;101041.70;106411;1271;22548;-74
2022/08/12 07:33:16;;;;;;;3.10;2.50;;;;;;;21.87;59.99;101036.30;106235;1271;22586;-72
2022/08/12 07:35:44;;;;;;;6.70;3.20;;;;;;;21.94;59.99;101032.56;106353;1271;24224;-71
2022/08/12 07:38:26;;;;;;;4.80;2.70;;;;;;;22.01;60.02;101037.63;106247;1271;22541;-71
2022/08/12 07:40:58;;;;;;;8.30;2.50;;;;;;;22.10;59.97;101042.07;105976;1272;25484;-69
2022/08/12 07:43:26;;;;;;;4.00;2.50;;;;;;;22.17;59.59;101043.89;106232;1271;26502;-69
2022/08/12 07:45:54;;;;;;;5.60;2.30;;;;;;;22.25;59.69;101041.72;106338;1271;22607;-69
2022/08/12 07:48:23;;;;;;;4.80;2.50;;;;;;;22.34;59.59;101043.45;106340;1271;22708;-73
2022/08/12 07:50:51;;;;;;;5.80;2.40;;;;;;;22.38;59.20;101037.49;106353;1271;23954;-72
2022/08/12 07:53:19;;;;;;;4.50;2.50;;;;;;;22.49;59.17;101039.65;106603;1271;22545;-71
2022/08/12 07:55:46;;;;;;;4.50;2.30;;;;;;;22.57;58.61;101039.63;108334;1271;24455;-69
2022/08/12 07:58:14;;;;;;;7.10;2.70;;;;;;;22.68;58.39;101042.75;106552;1272;23107;-71
2022/08/12 08:00:41;;;;;;;9.00;2.40;;;;;;;22.79;58.60;101047.02;107381;1271;23536;-71
2022/08/12 08:03:12;;;;;;;3.70;2.40;;;;;;;22.96;58.04;101045.80;108927;1269;22559;-69
2022/08/12 08:05:45;;;;;;;3.70;2.20;;;;;;;23.16;57.56;101041.73;107258;1271;22521;-70
2022/08/12 08:08:16;;;;;;;3.00;2.40;;;;;;;23.35;57.09;101040.05;106556;1271;22523;-71
2022/08/12 08:10:44;;;;;;;2.50;2.20;;;;;;;23.56;57.26;101039.33;106450;1270;22527;-72
2022/08/12 08:13:12;;;;;;;2.50;2.30;;;;;;;23.76;56.19;101033.77;106494;1271;25233;-71
2022/08/12 08:15:39;;;;;;;2.80;2.40;;;;;;;23.94;55.95;101035.33;106185;1271;22678;-72
2022/08/12 08:18:27;;;;;;;3.10;2.20;;;;;;;24.15;55.16;101032.23;106326;1271;22618;-71
2022/08/12 08:20:55;;;;;;;5.40;2.20;;;;;;;24.27;54.61;101034.80;106277;1271;24177;-70
2022/08/12 08:24:13;;;;;;;5.00;2.20;;;;;;;24.37;54.33;101041.06;106127;1271;25248;-72
2022/08/12 08:26:23;;;;;;;2.00;1.80;;;;;;;24.53;54.14;101036.95;106199;1271;24573;-73
2022/08/12 08:28:50;;;;;;;4.10;2.00;;;;;;;24.57;53.80;101041.94;106098;1271;22789;-69
2022/08/12 08:31:18;;;;;;;3.20;2.30;;;;;;;24.64;53.48;101043.32;106186;1271;22540;-71
2022/08/12 08:33:45;;;;;;;3.70;2.30;;;;;;;24.74;53.22;101047.06;106161;1271;22522;-71
2022/08/12 08:36:32;;;;;;;6.40;2.60;;;;;;;24.77;53.21;101042.38;106074;1271;22528;-76
2022/08/12 08:39:03;;;;;;;4.80;2.10;;;;;;;24.81;53.08;101044.86;106155;1271;24069;-69
2022/08/12 08:44:36;;;;;;;6.40;2.40;;;;;;;24.92;52.90;101042.78;105911;1274;22698;-69
2022/08/12 08:47:06;;;;;;;2.10;1.90;;;;;;;25.01;52.63;101042.11;105972;1275;22620;-70
2022/08/12 08:49:35;;;;;;;11.30;2.40;;;;;;;25.11;52.46;101048.19;106125;1274;22568;-72
2022/08/12 08:52:05;;;;;;;2.30;2.10;;;;;;;25.13;52.43;101047.48;105973;1274;23909;-70
2022/08/12 08:54:33;;;;;;;4.20;2.30;;;;;;;25.16;52.10;101052.71;106003;1274;22529;-71
2022/08/12 08:57:01;;;;;;;3.10;2.30;;;;;;;25.20;51.81;101055.40;106087;1274;22577;-68
2022/08/12 08:59:29;;;;;;;8.00;2.60;;;;;;;25.22;51.69;101051.45;106036;1271;22614;-71
2022/08/12 09:01:58;;;;;;;4.20;2.00;;;;;;;25.36;51.24;101049.02;106119;1271;25468;-70
2022/08/12 09:04:25;;;;;;;4.40;2.10;;;;;;;25.53;51.06;101052.67;105819;1277;26596;-69
2022/08/12 09:07:15;;;;;;;2.30;2.20;;;;;;;25.80;50.74;101051.38;105508;1276;25234;-71
2022/08/12 09:10:05;;;;;;;4.00;2.50;;;;;;;26.08;50.42;101042.39;105768;1277;25249;-70
2022/08/12 09:15:49;;;;;;;4.30;2.20;;;;;;;26.53;49.50;101036.09;105899;1277;22636;-70
2022/08/12 09:18:37;;;;;;;10.50;2.00;;;;;;;26.65;49.14;101035.31;105511;1277;22580;-77
2022/08/12 09:21:06;;;;;;;5.00;2.20;;;;;;;26.72;49.20;101035.74;105946;1276;25442;-71
2022/08/12 09:23:35;;;;;;;6.60;2.10;;;;;;;26.79;48.83;101038.38;106046;1271;25661;-70
2022/08/12 09:26:22;;;;;;;3.40;2.10;;;;;;;26.69;48.83;101041.52;106208;1270;24248;-71
2022/08/12 09:28:56;;;;;;;2.10;2.00;;;;;;;26.61;48.94;101043.55;106306;1271;22655;-70
2022/08/12 09:31:23;;;;;;;4.20;2.40;;;;;;;26.51;49.12;101042.92;106247;1271;22527;-71
2022/08/12 09:34:10;;;;;;;4.00;2.40;;;;;;;26.37;49.34;101044.55;106414;1271;24214;-69
2022/08/12 09:36:58;;;;;;;7.40;2.30;;;;;;;26.28;49.36;101044.05;106417;1271;25196;-70
2022/08/12 09:39:45;;;;;;;4.10;2.40;;;;;;;26.15;49.62;101046.81;106155;1271;24347;-71
2022/08/12 09:45:40;;;;;;;2.70;2.00;;;;;;;26.11;49.95;101038.27;106286;1271;24085;-78
2022/08/12 09:48:29;;;;;;;7.10;2.50;;;;;;;26.15;50.15;101036.55;106423;1271;22551;-71
2022/08/12 09:51:02;;;;;;;7.20;2.50;;;;;;;26.18;50.42;101036.91;106362;1271;24225;-71
2022/08/12 09:53:36;;;;;;;3.10;2.10;;;;;;;26.23;50.53;101037.98;106145;1271;22678;-71
2022/08/12 09:56:10;;;;;;;2.60;2.40;;;;;;;26.28;50.49;101036.44;106319;1271;24232;-72
2022/08/12 09:58:57;;;;;;;6.20;3.00;;;;;;;26.30;50.85;101031.97;106251;1271;24276;-72
2022/08/12 10:01:28;;;;;;;4.70;2.70;;;;;;;26.25;50.90;101028.36;106335;1271;22545;-73
2022/08/12 10:04:16;;;;;;;4.20;2.80;;;;;;;26.20;50.97;101033.53;106332;1271;25212;-70
2022/08/12 10:06:45;;;;;;;5.80;2.70;;;;;;;26.13;51.15;101029.48;106094;1271;25356;-72
2022/08/12 10:09:21;;;;;;;2.50;2.30;;;;;;;26.02;51.51;101033.80;106258;1271;25392;-72
2022/08/12 10:15:00;;;;;;;3.20;2.50;;;;;;;25.89;51.90;101034.98;106205;1271;22553;-71
2022/08/12 10:17:28;;;;;;;3.10;2.80;;;;;;;25.80;52.10;101032.80;106079;1271;22524;-70
2022/08/12 10:19:55;;;;;;;3.40;2.70;;;;;;;25.79;52.37;101030.91;106217;1271;24434;-70
2022/08/12 10:22:25;;;;;;;4.60;2.80;;;;;;;25.78;52.56;101029.48;106075;1271;25947;-70
2022/08/12 10:31:05;;;;;;;4.50;2.40;;;;;;;26.14;52.33;101016.40;106178;1271;22540;-72
2022/08/12 10:33:33;;;;;;;3.00;2.60;;;;;;;26.22;52.25;101019.34;106155;1271;24338;-71
2022/08/12 10:36:22;;;;;;;3.40;3.10;;;;;;;26.41;52.02;101014.48;106067;1271;22544;-71
2022/08/12 10:39:11;;;;;;;3.10;2.90;;;;;;;26.66;51.76;101011.90;106378;1271;24273;-71
2022/08/12 10:44:59;;;;;;;4.70;2.70;;;;;;;27.19;51.25;101010.74;106521;1271;25314;-72
2022/08/12 10:47:27;;;;;;;5.40;2.70;;;;;;;27.37;51.09;101000.81;106053;1271;22528;-71
2022/08/12 10:50:14;;;;;;;5.30;3.10;;;;;;;27.73;50.82;101004.09;106160;1271;26489;-74
2022/08/12 10:53:05;;;;;;;2.90;2.60;;;;;;;28.06;50.25;100993.89;106055;1271;26734;-73
2022/08/12 10:55:35;;;;;;;4.00;2.70;;;;;;;28.34;49.56;100994.61;106084;1271;22522;-70
2022/08/12 10:58:02;;;;;;;3.80;2.50;;;;;;;28.53;49.52;100993.23;106175;1271;22618;-71
2022/08/12 11:00:49;;;;;;;3.20;2.90;;;;;;;28.65;48.93;100996.83;106268;1271;22687;-70
2022/08/12 11:03:37;;;;;;;4.10;2.80;;;;;;;28.54;48.74;100990.24;106653;1271;23014;-71
2022/08/12 11:06:24;;;;;;;4.10;3.00;;;;;;;28.41;48.80;100993.55;107861;1271;22540;-71
2022/08/12 11:09:10;;;;;;;3.40;2.80;;;;;;;28.25;49.00;100996.36;107064;1271;23443;-72
2022/08/12 11:11:38;;;;;;;5.10;3.10;;;;;;;28.09;48.96;100995.73;107411;1271;22590;-71
2022/08/12 11:14:30;;;;;;;4.90;3.20;;;;;;;27.99;49.42;100997.71;107912;1271;23206;-71
2022/08/12 11:17:16;;;;;;;8.10;3.50;;;;;;;27.83;49.30;100998.48;106653;1271;22561;-72
2022/08/12 11:20:04;;;;;;;6.00;3.10;;;;;;;27.65;49.61;100995.59;106473;1271;22688;-72
2022/08/12 11:22:31;;;;;;;5.70;3.20;;;;;;;27.45;49.96;100991.40;106132;1271;26696;-69
2022/08/12 11:24:58;;;;;;;8.50;3.90;;;;;;;27.30;50.37;100988.79;106273;1271;22551;-73
2022/08/12 11:27:25;;;;;;;4.20;3.30;;;;;;;27.23;50.56;100987.70;106261;1271;24388;-72
2022/08/12 11:29:55;;;;;;;11.40;3.70;;;;;;;27.13;50.65;100990.17;106350;1271;24223;-73
2022/08/12 11:32:33;;;;;;;5.30;3.10;;;;;;;27.01;50.89;100989.70;106332;1271;22543;-71
2022/08/12 11:35:05;;;;;;;5.60;3.70;;;;;;;26.93;51.13;100991.36;106182;1271;22546;-71
2022/08/12 11:37:34;;;;;;;4.10;3.10;;;;;;;26.83;51.63;100988.59;106147;1271;25474;-71
2022/08/12 11:40:21;;;;;;;5.10;3.20;;;;;;;26.75;51.79;100991.48;106298;1271;22534;-72
2022/08/12 11:42:48;;;;;;;3.70;3.00;;;;;;;26.73;51.92;100987.98;106133;1271;25241;-76
2022/08/12 11:45:18;;;;;;;5.80;3.60;;;;;;;26.74;52.00;100984.89;106062;1271;22700;-72
2022/08/12 11:47:45;;;;;;;4.60;3.00;;;;;;;26.77;51.88;100985.00;106341;1271;22559;-71
2022/08/12 11:50:14;;;;;;;5.60;3.20;;;;;;;26.79;52.01;100982.91;106220;1271;25428;-72
2022/08/12 11:52:58;;;;;;;4.20;3.40;;;;;;;26.80;52.17;100986.61;106308;1271;22556;-71
2022/08/12 11:55:26;;;;;;;8.90;3.20;;;;;;;26.84;52.15;100981.68;106320;1271;25320;-71
2022/08/12 11:57:56;;;;;;;4.00;3.40;;;;;;;26.83;52.27;100982.98;106322;1271;22843;-70
2022/08/12 12:00:43;;;;;;;5.00;3.20;;;;;;;26.81;52.19;100977.86;106113;1271;22752;-72
2022/08/12 12:03:30;;;;;;;4.60;3.20;;;;;;;26.81;52.41;100978.23;106351;1271;25363;-72
2022/08/12 12:06:14;;;;;;;4.10;3.70;;;;;;;26.88;52.56;100977.39;106301;1271;25548;-70
2022/08/12 12:08:43;;;;;;;6.00;3.80;;;;;;;26.98;52.62;100978.02;106247;1271;22713;-67
2022/08/12 12:11:17;;;;;;;3.80;3.50;;;;;;;27.09;52.18;100975.63;106296;1271;22682;-72
2022/08/12 12:13:45;;;;;;;4.30;3.50;;;;;;;27.22;52.25;100970.08;106200;1272;23191;-67
2022/08/12 12:16:32;;;;;;;4.80;3.40;;;;;;;27.37;52.03;100969.73;106108;1271;22721;-73
2022/08/12 12:19:07;;;;;;;3.60;3.30;;;;;;;27.46;51.87;100965.80;106253;1271;22547;-70
2022/08/12 12:21:37;;;;;;;5.30;3.60;;;;;;;27.52;51.25;100967.55;106386;1271;25408;-71
2022/08/12 12:24:18;;;;;;;6.90;3.70;;;;;;;27.54;51.19;100962.51;106286;1271;22546;-73
2022/08/12 12:26:51;;;;;;;5.10;3.50;;;;;;;27.67;50.79;100957.66;106248;1271;25464;-73
2022/08/12 12:29:30;;;;;;;3.90;3.50;;;;;;;27.75;50.73;100955.11;106272;1271;22565;-70
2022/08/12 12:32:18;;;;;;;3.60;3.30;;;;;;;27.78;50.54;100953.77;106378;1271;22524;-71
2022/08/12 12:34:55;;;;;;;7.50;3.10;;;;;;;27.92;50.52;100956.02;106025;1271;22682;-69
2022/08/12 12:37:57;;;;;;;4.60;4.10;;;;;;;28.12;50.34;100950.08;106131;1271;22537;-71
2022/08/12 12:40:41;;;;;;;8.30;4.10;;;;;;;28.32;49.86;100941.38;106358;1271;22737;-74
2022/08/12 12:43:10;;;;;;;6.00;3.60;;;;;;;28.52;49.40;100943.31;106134;1272;22528;-74
2022/08/12 12:45:41;;;;;;;9.40;3.50;;;;;;;28.81;48.94;100945.05;106264;1274;25235;-72
2022/08/12 12:48:14;;;;;;;5.20;3.50;;;;;;;28.93;48.64;100939.05;106347;1271;24405;-71
2022/08/12 12:50:42;;;;;;;8.60;3.40;;;;;;;28.88;48.31;100936.39;106408;1272;22771;-72
2022/08/12 12:53:20;;;;;;;6.00;4.10;;;;;;;28.86;48.08;100935.77;106233;1271;22524;-71
2022/08/12 12:56:14;;;;;;;3.50;3.20;;;;;;;29.05;48.22;100937.21;105428;1272;1347660;-73
2022/08/12 12:58:42;;;;;;;4.10;3.20;;;;;;;29.21;48.14;100935.96;106254;1271;24224;-71
2022/08/12 13:01:12;;;;;;;5.40;3.70;;;;;;;29.27;47.92;100934.45;106192;1271;24230;-70
2022/08/12 13:03:56;;;;;;;7.90;4.50;;;;;;;29.12;48.65;100936.71;106460;1271;25312;-70
2022/08/12 13:06:30;;;;;;;6.70;4.30;;;;;;;28.88;49.44;100940.34;106101;1271;22614;-71
2022/08/12 13:09:00;;;;;;;8.80;4.40;;;;;;;28.58;50.41;100937.55;106287;1271;22839;-72
2022/08/12 13:11:32;;;;;;;11.90;4.40;;;;;;;28.30;51.50;100937.31;106217;1271;25306;-71
2022/08/12 13:14:12;;;;;;;6.30;4.40;;;;;;;28.05;52.57;100933.33;106220;1272;25244;-72
2022/08/12 13:16:59;;;;;;;5.00;4.10;;;;;;;27.83;52.95;100932.62;106173;1271;23730;-71
2022/08/12 13:19:30;;;;;;;6.50;4.70;;;;;;;27.56;53.17;100928.93;106360;1270;25293;-75
2022/08/12 13:22:16;;;;;;;10.40;4.60;;;;;;;27.31;54.08;100925.31;105836;1277;22538;-73
2022/08/12 13:24:45;;;;;;;;;;;;;;;27.13;54.43;100922.42;105989;1278;25199;-70
2022/08/12 13:27:22;;;;;;;;;;;;;;;26.97;54.99;100916.44;105809;1278;22560;-75
2022/08/12 13:30:02;;;;;;;5.40;4.70;;;;;;;26.80;55.35;100915.27;105845;1277;22559;-69
2022/08/12 13:32:32;;;;;;;7.70;5.00;;;;;;;26.63;55.51;100912.45;105856;1277;25303;-71
2022/08/12 13:35:01;;;;;;;12.80;4.90;;;;;;;26.54;55.34;100913.79;105950;1277;23129;-71
2022/08/12 13:37:30;;;;;;;6.90;5.10;;;;;;;26.49;55.45;100915.17;105653;1277;25253;-71
2022/08/12 13:40:17;;;;;;;5.90;4.60;;;;;;;26.45;55.31;100913.28;106057;1271;22547;-72